Time;durP1;ratioP1;P1;durP2;ratioP2;P2;SDS_P1;SDS_P2;PMS_P1;PMS_P2;Temp;Humidity;BMP_temperature;BMP_pressure;BME280_temperature;BME280_humidity;BME280_pressure;Samples;Min_cycle;Max_cycle;Signal;HPM_P1;HPM_P2
2022/01/12 00:01:16;;;;;;;23.40;10.65;;;;;;;-4.44;66.01;101879.53;1416605;90;22271;-78
2022/01/12 00:03:45;;;;;;;24.27;11.18;;;;;;;-4.52;66.38;101879.19;1429409;89;21574;-78
2022/01/12 00:06:13;;;;;;;12.73;5.37;;;;;;;-4.52;66.29;101876.16;1429321;90;21545;-78
2022/01/12 00:08:41;;;;;;;22.77;9.90;;;;;;;-4.58;66.60;101881.41;1425852;89;21501;-80
2022/01/12 00:11:09;;;;;;;28.05;12.60;;;;;;;-4.59;66.67;101879.26;1417665;89;21655;-79
2022/01/12 00:13:36;;;;;;;15.43;7.62;;;;;;;-4.62;66.61;101874.13;1417775;88;22066;-79
2022/01/12 00:16:05;;;;;;;30.35;13.78;;;;;;;-4.68;66.71;101874.19;1412285;89;21568;-79
2022/01/12 00:18:34;;;;;;;42.00;16.20;;;;;;;-4.67;66.69;101875.89;1434691;89;21539;-79
2022/01/12 00:21:03;;;;;;;40.90;19.02;;;;;;;-4.69;66.93;101867.33;1454948;91;21378;-79
2022/01/12 00:23:30;;;;;;;54.83;23.15;;;;;;;-4.68;66.84;101869.47;1431132;91;21342;-79
2022/01/12 00:34:07;;;;;;;15.98;8.38;;;;;;;-4.71;66.79;101881.97;1450288;88;21446;-78
2022/01/12 00:36:36;;;;;;;17.62;9.10;;;;;;;-4.69;66.63;101886.70;1441221;88;21261;-78
2022/01/12 00:39:07;;;;;;;18.70;10.03;;;;;;;-4.72;66.66;101886.70;1432743;88;21509;-78
2022/01/12 00:41:37;;;;;;;18.55;7.70;;;;;;;-4.69;66.56;101890.58;1457241;88;21346;-77
2022/01/12 00:44:10;;;;;;;43.73;18.10;;;;;;;-4.71;66.49;101893.59;1469201;87;21393;-78
2022/01/12 00:46:37;;;;;;;35.92;15.72;;;;;;;-4.72;66.72;101894.89;1420517;88;22288;-78
2022/01/12 00:49:05;;;;;;;40.85;16.70;;;;;;;-4.73;66.79;101897.91;1431822;88;22315;-78
2022/01/12 00:51:34;;;;;;;15.20;7.25;;;;;;;-4.74;66.71;101901.37;1477735;88;22785;-80
2022/01/12 00:54:03;;;;;;;19.42;8.75;;;;;;;-4.79;66.38;101903.99;1468889;88;21420;-80
2022/01/12 00:56:30;;;;;;;15.90;7.60;;;;;;;-4.73;66.49;101908.25;1422258;88;21335;-80
2022/01/12 00:58:57;;;;;;;16.15;7.62;;;;;;;-4.78;66.45;101900.97;1414877;89;21331;-80
2022/01/12 01:01:27;;;;;;;20.32;10.78;;;;;;;-4.80;66.47;101905.31;1427524;89;22240;-80
2022/01/12 01:03:55;;;;;;;11.88;7.00;;;;;;;-4.79;66.57;101900.56;1431793;88;21413;-80
2022/01/12 01:06:23;;;;;;;23.62;10.60;;;;;;;-4.80;66.40;101901.44;1407377;91;22386;-80
2022/01/12 01:08:52;;;;;;;17.57;8.33;;;;;;;-4.80;66.33;101902.29;1405705;91;22450;-80
2022/01/12 01:11:19;;;;;;;15.72;8.28;;;;;;;-4.81;66.45;101899.70;1402896;91;21496;-81
2022/01/12 01:14:01;;;;;;;16.87;7.83;;;;;;;-4.85;66.58;101900.62;1403294;91;21470;-81
2022/01/12 01:27:32;;;;;;;15.50;7.80;;;;;;;-5.03;66.39;101893.45;1441643;90;22390;-79
2022/01/12 01:29:59;;;;;;;16.02;8.08;;;;;;;-5.04;66.38;101899.47;1439810;89;21590;-79
2022/01/12 01:32:27;;;;;;;18.92;7.97;;;;;;;-5.02;66.42;101895.59;1425847;90;21333;-79
2022/01/12 01:34:54;;;;;;;15.70;7.75;;;;;;;-5.10;66.77;101890.92;1405359;91;21312;-80
2022/01/12 01:37:22;;;;;;;14.10;5.95;;;;;;;-5.10;67.08;101890.48;1399625;91;21312;-78
2022/01/12 01:39:49;;;;;;;13.93;6.28;;;;;;;-5.16;67.25;101894.41;1410573;90;21363;-77
2022/01/12 01:42:21;;;;;;;12.78;5.92;;;;;;;-5.17;67.30;101897.87;1411825;91;22266;-78
2022/01/12 01:55:32;;;;;;;18.60;8.48;;;;;;;-5.28;68.73;101893.22;1481679;88;21267;-78
2022/01/12 01:57:59;;;;;;;17.25;8.50;;;;;;;-5.28;69.27;101901.80;1461050;90;21322;-78
2022/01/12 02:00:29;;;;;;;19.40;8.83;;;;;;;-5.28;69.96;101903.09;1423698;89;21305;-79
2022/01/12 02:02:57;;;;;;;18.80;8.90;;;;;;;-5.27;70.27;101898.78;1391827;90;21295;-79
2022/01/12 02:05:26;;;;;;;16.07;8.25;;;;;;;-5.23;70.37;101892.75;1404181;89;24278;-79
2022/01/12 02:07:54;;;;;;;17.75;8.98;;;;;;;-5.17;70.27;101901.73;1423744;90;21516;-79
2022/01/12 02:10:21;;;;;;;19.40;8.30;;;;;;;-5.13;70.14;101912.45;1437436;89;21517;-78
2022/01/12 02:12:48;;;;;;;15.25;6.78;;;;;;;-5.12;70.15;101910.31;1431864;89;21509;-78
2022/01/12 02:15:22;;;;;;;26.23;11.10;;;;;;;-5.15;70.14;101909.05;1438118;89;21465;-78
2022/01/12 02:37:17;;;;;;;20.55;9.60;;;;;;;-5.11;70.27;101909.44;1438188;88;21526;-79
2022/01/12 02:39:53;;;;;;;19.05;9.25;;;;;;;-5.08;70.21;101915.86;1445278;88;21473;-79
2022/01/12 02:42:18;;;;;;;19.82;8.90;;;;;;;-5.05;70.20;101918.86;1460061;87;21488;-78
2022/01/12 02:55:50;;;;;;;20.50;8.85;;;;;;;-5.10;70.77;101915.45;1459319;88;21473;-79
2022/01/12 02:58:18;;;;;;;19.42;9.35;;;;;;;-5.13;70.98;101909.87;1452601;88;21422;-79
2022/01/12 03:03:33;;;;;;;22.05;9.83;;;;;;;-5.10;71.06;101915.00;1413981;88;21672;-79
2022/01/12 03:06:01;;;;;;;17.07;8.48;;;;;;;-5.09;71.04;101918.03;1454554;87;21546;-78
2022/01/12 03:08:29;;;;;;;19.52;8.55;;;;;;;-5.08;71.06;101917.16;1455688;88;21480;-79
2022/01/12 03:10:56;;;;;;;20.20;8.60;;;;;;;-5.03;70.79;101917.98;1459295;87;21524;-78
2022/01/12 03:13:24;;;;;;;16.17;7.20;;;;;;;-4.99;70.81;101923.53;1461171;87;22425;-92
2022/01/12 03:15:51;;;;;;;17.70;8.93;;;;;;;-4.99;70.63;101917.08;1454935;86;21412;-93
2022/01/12 03:18:18;;;;;;;19.37;11.45;;;;;;;-4.95;70.56;101929.52;1456119;87;21599;-91
2022/01/12 03:20:45;;;;;;;23.32;11.83;;;;;;;-4.94;70.58;101922.66;1468285;88;21434;-90
2022/01/12 03:25:44;;;;;;;24.67;11.50;;;;;;;-4.90;70.58;101920.45;1452303;88;21576;-91
2022/01/12 03:28:11;;;;;;;24.00;13.90;;;;;;;-4.88;70.65;101924.74;1428409;87;21480;-90
2022/01/12 03:30:48;;;;;;;25.60;11.40;;;;;;;-4.85;70.55;101930.32;1460373;88;22502;-89
2022/01/12 03:33:18;;;;;;;24.82;10.93;;;;;;;-4.87;70.65;101929.47;1460151;88;22116;-90
2022/01/12 03:35:51;;;;;;;28.62;12.20;;;;;;;-4.86;70.54;101924.30;1455170;88;21450;-91
2022/01/12 03:38:21;;;;;;;20.48;9.83;;;;;;;-4.88;70.91;101918.28;1455083;88;23489;-90
2022/01/12 03:40:50;;;;;;;22.37;11.15;;;;;;;-4.85;70.97;101915.67;1455289;88;21423;-91
2022/01/12 03:43:20;;;;;;;29.32;11.73;;;;;;;-4.83;70.96;101911.80;1451875;88;22382;-91
2022/01/12 03:45:50;;;;;;;23.32;10.00;;;;;;;-4.83;71.39;101906.64;1463045;88;21551;-91
2022/01/12 03:50:44;;;;;;;28.38;12.90;;;;;;;-4.78;71.51;101916.02;1443641;88;21666;-90
2022/01/12 03:53:11;;;;;;;23.20;10.88;;;;;;;-4.73;71.46;101912.13;1454284;87;21444;-90
2022/01/12 03:55:38;;;;;;;24.77;12.37;;;;;;;-4.74;71.56;101913.00;1459195;88;21451;-91
2022/01/12 03:58:06;;;;;;;31.33;15.32;;;;;;;-4.70;71.45;101914.67;1479826;87;21642;-92
2022/01/12 04:00:33;;;;;;;30.85;13.83;;;;;;;-4.72;71.46;101920.28;1429028;89;21436;-92
2022/01/12 04:03:03;;;;;;;22.02;10.98;;;;;;;-4.73;71.48;101925.04;1449183;87;21570;-90
2022/01/12 04:08:18;;;;;;;26.73;15.10;;;;;;;-4.77;71.67;101925.95;1456664;88;22521;-91
2022/01/12 04:10:45;;;;;;;28.98;14.43;;;;;;;-4.76;71.79;101937.55;1440994;87;21472;-91
2022/01/12 04:13:14;;;;;;;34.25;13.10;;;;;;;-4.83;71.93;101938.48;1444327;88;21449;-92
2022/01/12 04:15:48;;;;;;;35.78;15.32;;;;;;;-4.85;71.89;101938.07;1458973;87;21501;-90
2022/01/12 04:18:15;;;;;;;23.52;10.10;;;;;;;-4.87;71.95;101934.63;1449035;88;22501;-91
2022/01/12 04:20:47;;;;;;;23.95;11.60;;;;;;;-4.90;71.95;101943.26;1464202;88;21480;-91
2022/01/12 04:23:18;;;;;;;31.55;15.13;;;;;;;-4.88;71.92;101942.82;1446967;88;21466;-90
2022/01/12 04:25:58;;;;;;;25.20;12.53;;;;;;;-4.85;71.76;101940.65;1445600;89;21657;-90
2022/01/12 04:28:27;;;;;;;29.75;14.20;;;;;;;-4.89;71.80;101941.12;1451167;88;22472;-91
2022/01/12 04:30:57;;;;;;;26.57;12.03;;;;;;;-4.90;71.90;101939.83;1451659;87;22752;-91
2022/01/12 04:33:24;;;;;;;25.43;10.28;;;;;;;-4.91;72.00;101931.67;1439460;89;21479;-91
2022/01/12 04:35:54;;;;;;;29.50;12.25;;;;;;;-4.96;72.20;101930.84;1428022;90;21686;-90
2022/01/12 04:38:27;;;;;;;31.17;13.60;;;;;;;-5.00;72.36;101933.45;1463432;88;22074;-90
2022/01/12 04:40:55;;;;;;;28.55;14.78;;;;;;;-5.01;72.54;101931.71;1460119;88;21457;-90
2022/01/12 04:43:25;;;;;;;28.42;11.65;;;;;;;-5.00;72.50;101942.48;1462827;88;21519;-90
2022/01/12 04:50:54;;;;;;;;;;;;;;;-5.02;72.70;101937.75;1470577;88;21509;-87
2022/01/12 04:53:25;;;;;;;32.00;12.10;;;;;;;-4.99;72.59;101937.73;1452583;88;21020;-88
2022/01/12 04:55:53;;;;;;;18.17;9.60;;;;;;;-5.00;72.53;101939.91;1448316;88;21619;-90
2022/01/12 04:58:20;;;;;;;27.17;13.85;;;;;;;-4.97;72.34;101943.34;1421044;90;21572;-87
2022/01/12 05:00:51;;;;;;;26.70;12.50;;;;;;;-4.94;72.10;101948.48;1427886;90;21556;-87
2022/01/12 05:09:06;;;;;;;24.15;10.55;;;;;;;-4.87;71.53;101930.76;1401050;91;22378;-88
2022/01/12 05:14:06;;;;;;;24.25;10.78;;;;;;;-4.84;71.12;101948.81;1432271;89;22353;-88
2022/01/12 05:16:33;;;;;;;22.30;11.12;;;;;;;-4.87;71.06;101952.27;1459691;88;21789;-90
2022/01/12 05:19:00;;;;;;;31.87;12.37;;;;;;;-4.86;70.98;101958.28;1434863;89;21445;-90
2022/01/12 05:21:28;;;;;;;22.40;8.35;;;;;;;-4.86;70.87;101962.16;1406669;91;21655;-89
2022/01/12 05:24:00;;;;;;;26.05;12.37;;;;;;;-4.93;71.06;101965.23;1403540;92;23620;-89
2022/01/12 05:26:26;;;;;;;34.15;14.80;;;;;;;-4.88;70.97;101966.50;1409226;92;22345;-89
2022/01/12 05:28:53;;;;;;;30.88;14.78;;;;;;;-4.87;70.94;101964.33;1391881;92;21712;-88
2022/01/12 05:31:23;;;;;;;29.98;15.03;;;;;;;-4.85;70.80;101962.61;1417315;90;22346;-87
2022/01/12 05:33:50;;;;;;;27.20;14.73;;;;;;;-4.89;70.73;101960.89;1394588;92;21479;-88
2022/01/12 05:36:19;;;;;;;35.28;17.00;;;;;;;-4.90;70.64;101970.81;1385469;92;21406;-88
2022/01/12 05:38:48;;;;;;;28.38;12.90;;;;;;;-4.91;70.63;101972.98;1450161;88;21444;-88
2022/01/12 05:41:15;;;;;;;31.30;15.50;;;;;;;-4.93;70.65;101973.42;1430790;89;21366;-88
2022/01/12 05:43:45;;;;;;;29.30;14.58;;;;;;;-4.95;70.71;101981.61;1402945;91;21650;-88
2022/01/12 05:46:14;;;;;;;35.52;17.90;;;;;;;-4.95;70.70;101983.75;1450580;88;21466;-88
2022/01/12 05:51:30;;;;;;;28.80;13.38;;;;;;;-5.05;70.74;101983.41;1458426;88;22374;-88
2022/01/12 05:53:58;;;;;;;34.48;16.30;;;;;;;-5.11;70.83;101987.32;1461392;88;21569;-88
2022/01/12 05:56:25;;;;;;;31.95;14.43;;;;;;;-5.14;70.92;101989.92;1432478;89;21570;-88
2022/01/12 05:58:53;;;;;;;30.62;13.75;;;;;;;-5.13;70.72;101986.03;1420374;90;23387;-88
2022/01/12 06:01:21;;;;;;;30.55;14.10;;;;;;;-5.17;70.81;101989.51;1410459;90;22063;-88
2022/01/12 06:03:48;;;;;;;29.92;13.65;;;;;;;-5.19;70.88;101993.81;1414440;90;21448;-89
2022/01/12 06:06:16;;;;;;;30.97;12.43;;;;;;;-5.23;71.01;101997.30;1427855;90;21576;-88
2022/01/12 06:08:45;;;;;;;30.68;13.58;;;;;;;-5.30;71.22;102004.62;1418437;90;21479;-88
2022/01/12 06:11:13;;;;;;;25.43;11.88;;;;;;;-5.33;71.27;102004.65;1412916;90;21547;-88
2022/01/12 06:13:40;;;;;;;29.18;14.28;;;;;;;-5.38;71.45;102003.80;1404352;92;21465;-88
2022/01/12 06:16:07;;;;;;;36.20;17.20;;;;;;;-5.35;71.32;102015.00;1394507;92;22484;-84
2022/01/12 06:18:36;;;;;;;33.23;13.55;;;;;;;-5.36;71.10;102006.80;1412357;91;21549;-85
2022/01/12 06:21:03;;;;;;;27.82;14.38;;;;;;;-5.35;71.20;102016.69;1438058;89;21503;-84
2022/01/12 06:23:31;;;;;;;29.37;15.08;;;;;;;-5.34;71.10;102014.56;1414431;91;21617;-84
2022/01/12 06:25:58;;;;;;;30.15;15.10;;;;;;;-5.34;71.14;102019.28;1425241;91;21554;-84
2022/01/12 06:31:12;;;;;;;26.10;12.25;;;;;;;-5.41;71.02;102013.70;1409648;91;21560;-86
2022/01/12 06:33:46;;;;;;;30.82;12.55;;;;;;;-5.45;71.16;102023.20;1419651;91;21629;-87
2022/01/12 06:36:17;;;;;;;25.77;13.88;;;;;;;-5.46;71.23;102025.36;1400676;91;21460;-88
2022/01/12 06:38:46;;;;;;;25.70;13.13;;;;;;;-5.48;71.17;102021.92;1405245;91;21415;-88
2022/01/12 06:41:14;;;;;;;31.50;15.70;;;;;;;-5.47;71.29;102027.52;1452490;89;21605;-88
2022/01/12 06:43:42;;;;;;;29.95;12.70;;;;;;;-5.47;71.33;102031.80;1441733;89;21457;-88
2022/01/12 06:46:10;;;;;;;33.53;15.20;;;;;;;-5.48;71.27;102030.09;1446058;87;21606;-88
2022/01/12 06:48:38;;;;;;;25.08;12.88;;;;;;;-5.47;71.31;102028.81;1445296;89;21427;-88
2022/01/12 06:51:05;;;;;;;26.65;12.68;;;;;;;-5.49;71.32;102030.53;1450666;88;22699;-89
2022/01/12 06:53:33;;;;;;;26.77;11.53;;;;;;;-5.46;71.22;102033.09;1445701;88;22437;-87
2022/01/12 06:56:00;;;;;;;28.83;13.30;;;;;;;-5.45;71.17;102039.97;1445514;88;22516;-88
2022/01/12 06:58:29;;;;;;;26.95;12.10;;;;;;;-5.38;71.10;102034.37;1448325;88;22558;-89
2022/01/12 07:00:56;;;;;;;29.87;13.18;;;;;;;-5.32;70.78;102042.08;1453779;88;21511;-89
2022/01/12 07:03:26;;;;;;;23.52;11.43;;;;;;;-5.32;70.77;102045.06;1447102;88;22472;-88
2022/01/12 07:05:53;;;;;;;32.25;14.28;;;;;;;-5.29;70.83;102047.66;1449597;88;22368;-88
2022/01/12 07:08:20;;;;;;;30.72;13.05;;;;;;;-5.25;70.70;102048.06;1435446;89;21583;-88
2022/01/12 07:10:48;;;;;;;28.75;14.70;;;;;;;-5.21;70.61;102048.45;1463812;88;22553;-86
2022/01/12 07:13:15;;;;;;;30.23;13.68;;;;;;;-5.13;70.52;102054.44;1450397;88;21637;-87
2022/01/12 07:15:44;;;;;;;56.83;25.02;;;;;;;-5.09;70.30;102051.41;1449597;88;22397;-84
2022/01/12 07:18:12;;;;;;;74.70;27.85;;;;;;;-5.05;70.09;102052.68;1438439;88;21464;-85
2022/01/12 07:20:40;;;;;;;142.20;46.58;;;;;;;-4.97;69.91;102062.98;1442436;88;21333;-86
2022/01/12 07:23:07;;;;;;;84.95;31.35;;;;;;;-4.87;69.86;102058.16;1453847;88;22353;-85
2022/01/12 07:25:35;;;;;;;55.12;24.30;;;;;;;-4.82;69.33;102059.00;1452136;88;21497;-84
2022/01/12 07:28:02;;;;;;;30.02;14.90;;;;;;;-4.70;69.40;102068.39;1438688;88;21375;-88
2022/01/12 07:30:31;;;;;;;33.98;16.35;;;;;;;-4.66;68.97;102073.98;1458460;88;21420;-88
2022/01/12 07:33:00;;;;;;;29.42;15.85;;;;;;;-4.58;68.80;102073.47;1456862;88;22528;-87
2022/01/12 07:35:28;;;;;;;49.98;21.00;;;;;;;-4.54;68.64;102076.47;1436080;88;21869;-86
2022/01/12 07:37:55;;;;;;;32.50;14.60;;;;;;;-4.49;68.43;102076.86;1454479;88;21574;-85
2022/01/12 07:40:22;;;;;;;46.77;19.82;;;;;;;-4.46;68.27;102077.72;1450824;88;21459;-87
2022/01/12 07:42:51;;;;;;;29.35;13.90;;;;;;;-4.40;68.31;102083.24;1457491;88;21449;-87
2022/01/12 07:45:19;;;;;;;39.20;17.27;;;;;;;-4.34;67.97;102093.56;1436248;89;21401;-87
2022/01/12 07:50:35;;;;;;;37.98;15.95;;;;;;;-4.22;67.84;102092.16;1430158;89;21596;-87
2022/01/12 07:53:02;;;;;;;22.05;11.35;;;;;;;-4.17;67.79;102098.16;1444507;89;21508;-88
2022/01/12 07:55:30;;;;;;;27.05;13.72;;;;;;;-4.21;67.27;102100.33;1446054;87;21570;-88
2022/01/12 07:57:59;;;;;;;34.92;14.58;;;;;;;-4.11;67.26;102099.84;1454279;88;21487;-86
2022/01/12 08:00:27;;;;;;;28.32;12.70;;;;;;;-4.10;67.13;102108.86;1456816;88;21480;-86
2022/01/12 08:02:54;;;;;;;23.45;11.55;;;;;;;-4.04;66.86;102110.98;1453525;87;21407;-86
2022/01/12 08:05:22;;;;;;;27.70;13.38;;;;;;;-4.03;66.81;102112.68;1437330;88;21401;-86
2022/01/12 08:07:49;;;;;;;34.67;15.80;;;;;;;-3.98;67.03;102109.62;1469592;88;21575;-86
2022/01/12 08:10:23;;;;;;;27.80;13.40;;;;;;;-3.94;66.69;102110.01;1450863;88;21581;-87
2022/01/12 08:12:50;;;;;;;29.63;12.20;;;;;;;-3.92;66.77;102114.74;1455209;87;21524;-89
2022/01/12 08:15:17;;;;;;;34.13;14.33;;;;;;;-3.87;66.79;102116.86;1453259;87;21524;-88
2022/01/12 08:17:45;;;;;;;32.58;15.63;;;;;;;-3.76;66.69;102112.44;1457663;87;22408;-86
2022/01/12 08:20:15;;;;;;;32.90;14.13;;;;;;;-3.73;66.30;102120.61;1446529;88;21458;-88
2022/01/12 08:22:42;;;;;;;24.57;13.35;;;;;;;-3.71;66.06;102116.25;1456870;88;21702;-86
2022/01/12 08:25:10;;;;;;;28.35;13.85;;;;;;;-3.64;65.86;102128.28;1469685;87;21441;-86
2022/01/12 08:27:38;;;;;;;28.00;14.53;;;;;;;-3.55;66.16;102132.06;1459891;88;21510;-87
2022/01/12 08:30:16;;;;;;;24.00;11.12;;;;;;;-3.55;65.68;102125.59;1455217;88;21598;-87
2022/01/12 08:32:39;;;;;;;30.15;14.75;;;;;;;-3.49;65.15;102131.14;1444068;89;21629;-88
2022/01/12 08:35:10;;;;;;;27.48;14.43;;;;;;;-3.47;64.95;102136.72;1460156;88;22317;-88
2022/01/12 08:37:38;;;;;;;35.30;14.00;;;;;;;-3.34;65.61;102141.31;1458849;88;24580;-86
2022/01/12 08:40:07;;;;;;;25.77;11.15;;;;;;;-3.29;64.78;102143.87;1452040;87;22846;-87
2022/01/12 08:42:34;;;;;;;27.93;14.45;;;;;;;-3.22;65.07;102150.27;1464740;88;21586;-85
2022/01/12 08:45:04;;;;;;;25.60;11.20;;;;;;;-3.17;64.28;102144.57;1441733;88;21437;-84
2022/01/12 08:47:31;;;;;;;22.80;10.35;;;;;;;-3.13;64.30;102153.62;1445551;88;21591;-88
2022/01/12 08:49:59;;;;;;;18.07;9.90;;;;;;;-3.11;63.68;102159.63;1454132;88;22514;-89
2022/01/12 08:52:29;;;;;;;27.60;13.22;;;;;;;-3.08;63.25;102155.70;1458918;88;21441;-87
2022/01/12 08:54:56;;;;;;;24.27;11.50;;;;;;;-3.01;64.02;102163.84;1451475;87;22848;-89
2022/01/12 08:57:23;;;;;;;28.73;15.05;;;;;;;-2.92;63.31;102152.50;1448406;87;21458;-88
2022/01/12 08:59:50;;;;;;;24.18;12.25;;;;;;;-2.78;63.70;102148.00;1462075;87;21552;-89
2022/01/12 09:02:18;;;;;;;22.70;10.35;;;;;;;-2.64;63.20;102151.71;1452368;88;21512;-88
2022/01/12 09:04:45;;;;;;;31.15;16.02;;;;;;;-2.59;62.44;102155.95;1453857;87;21510;-87
2022/01/12 09:07:12;;;;;;;29.32;13.72;;;;;;;-2.56;62.85;102155.91;1461705;88;21613;-88
2022/01/12 09:09:39;;;;;;;26.77;13.28;;;;;;;-2.47;62.13;102160.10;1446381;87;21503;-91
2022/01/12 09:12:08;;;;;;;26.12;12.45;;;;;;;-2.37;61.88;102160.81;1453577;88;21449;-88
2022/01/12 09:14:35;;;;;;;24.63;12.00;;;;;;;-2.34;61.79;102160.32;1447685;87;21644;-88
2022/01/12 09:17:02;;;;;;;29.10;13.83;;;;;;;-2.43;61.63;102155.28;1452444;88;21467;-88
2022/01/12 09:19:30;;;;;;;25.77;13.18;;;;;;;-2.44;61.61;102153.58;1459318;88;21473;-89
2022/01/12 09:21:57;;;;;;;20.15;10.72;;;;;;;-2.37;62.30;102148.70;1446283;88;22901;-89
2022/01/12 09:24:24;;;;;;;24.23;13.38;;;;;;;-2.34;61.03;102150.39;1409791;88;21345;-89
2022/01/12 09:26:51;;;;;;;29.00;17.27;;;;;;;-2.12;62.10;102149.63;1437211;87;22383;-86
2022/01/12 09:29:19;;;;;;;26.02;12.88;;;;;;;-2.06;61.41;102149.09;1455404;88;21562;-86
2022/01/12 09:31:46;;;;;;;26.80;13.62;;;;;;;-2.12;60.74;102150.93;1453210;87;21407;-87
2022/01/12 09:34:14;;;;;;;22.10;9.88;;;;;;;-1.99;61.25;102154.17;1460626;88;21429;-87
2022/01/12 09:36:41;;;;;;;31.48;14.80;;;;;;;-2.01;60.45;102142.54;1456682;88;21530;-86
2022/01/12 09:39:09;;;;;;;29.30;15.20;;;;;;;-1.69;61.26;102148.91;1455445;87;21434;-87
2022/01/12 09:41:37;;;;;;;37.75;12.07;;;;;;;-1.52;59.73;102133.03;1454677;87;21467;-88
2022/01/12 09:44:05;;;;;;;26.17;11.25;;;;;;;-1.60;58.82;102130.57;1456614;88;22405;-88
2022/01/12 09:46:32;;;;;;;23.00;10.65;;;;;;;-1.62;59.19;102137.52;1464883;88;21450;-88
2022/01/12 09:49:01;;;;;;;22.97;11.60;;;;;;;-1.58;58.34;102136.59;1451865;87;21393;-88
2022/01/12 09:51:28;;;;;;;30.13;15.03;;;;;;;-1.23;57.56;102132.47;1452145;87;21863;-89
2022/01/12 09:53:56;;;;;;;22.80;11.53;;;;;;;-0.44;55.32;102130.34;1453665;88;21818;-89
2022/01/12 09:56:28;;;;;;;28.43;16.27;;;;;;;0.14;53.38;102131.52;1454926;88;21729;-87
2022/01/12 09:58:58;;;;;;;28.33;15.77;;;;;;;1.29;51.52;102125.70;1436212;88;21969;-87
2022/01/12 10:01:33;;;;;;;23.03;12.93;;;;;;;1.29;51.52;102125.70;1461070;88;21872;-87
2022/01/12 10:04:17;;;;;;;20.00;12.87;;;;;;;1.78;50.64;102119.83;1456131;87;21759;-88
2022/01/12 10:06:53;;;;;;;26.17;15.27;;;;;;;2.07;47.71;101999.61;1461803;87;23238;-88
2022/01/12 10:09:34;;;;;;;27.93;15.00;;;;;;;2.73;48.38;102109.59;1458868;87;21459;-87
2022/01/12 10:12:05;;;;;;;;;;;;;;;3.07;46.53;102115.28;1456000;88;21516;-87
2022/01/12 10:14:55;;;;;;;21.87;12.18;;;;;;;2.47;45.60;102115.30;1453232;88;20394;-88
2022/01/12 10:17:47;;;;;;;32.47;18.77;;;;;;;2.43;47.21;102115.88;1450659;88;22509;-88
2022/01/12 10:20:21;;;;;;;19.57;12.57;;;;;;;2.41;47.55;102119.45;1406409;88;21467;-88
2022/01/12 10:23:02;;;;;;;28.13;15.73;;;;;;;2.00;47.84;102119.11;1458145;88;21384;-89
2022/01/12 10:25:30;;;;;;;;;;;;;;;2.12;48.61;102119.15;1456550;88;21580;-89
2022/01/12 10:27:58;;;;;;;26.87;16.57;;;;;;;1.93;47.11;102125.45;1447883;87;20410;-87
2022/01/12 10:30:30;;;;;;;22.27;12.27;;;;;;;2.37;47.19;102123.09;1452846;87;21399;-88
2022/01/12 10:33:06;;;;;;;21.27;12.30;;;;;;;2.28;47.07;102111.66;1454949;88;21442;-88
2022/01/12 10:35:37;;;;;;;18.43;11.13;;;;;;;1.97;47.13;102114.84;1459926;88;22451;-89
2022/01/12 10:38:15;;;;;;;39.17;20.40;;;;;;;1.43;48.10;102108.34;1456557;88;21444;-88
2022/01/12 10:41:01;;;;;;;54.03;32.00;;;;;;;2.09;49.00;102116.18;1452763;87;21348;-83
2022/01/12 10:43:38;;;;;;;32.57;19.07;;;;;;;2.71;48.99;102110.52;1456640;88;21540;-86
2022/01/12 10:46:12;;;;;;;32.93;21.40;;;;;;;3.14;46.41;102111.53;1453134;87;21436;-87
2022/01/12 10:48:49;;;;;;;21.27;10.80;;;;;;;3.13;43.94;102108.50;1484478;88;21722;-90
2022/01/12 10:51:20;;;;;;;22.10;12.80;;;;;;;2.81;45.22;102110.17;1437158;87;22640;-88
2022/01/12 10:53:54;;;;;;;23.15;15.35;;;;;;;2.13;46.29;102117.80;1433409;90;21658;-86
2022/01/12 10:56:23;;;;;;;19.43;12.90;;;;;;;2.11;47.66;102111.77;1444530;88;21495;-87
2022/01/12 10:58:55;;;;;;;15.57;9.93;;;;;;;2.22;46.30;102111.41;1452060;87;21407;-87
2022/01/12 11:01:26;;;;;;;27.33;16.30;;;;;;;1.98;45.36;102111.77;1483156;87;21472;-88
2022/01/12 11:03:53;;;;;;;;;;;;;;;2.62;46.44;102100.41;1461055;87;21601;-87
2022/01/12 11:06:20;;;;;;;34.63;18.67;;;;;;;2.45;46.04;102109.30;1447929;87;20306;-86
2022/01/12 11:08:50;;;;;;;36.43;20.47;;;;;;;2.63;47.45;102114.32;1448625;89;21463;-88
2022/01/12 11:11:20;;;;;;;21.67;13.83;;;;;;;3.08;46.84;102106.97;1444744;88;23415;-87
2022/01/12 11:13:51;;;;;;;22.40;14.20;;;;;;;3.18;45.62;102094.41;1471571;87;21434;-87
2022/01/12 11:16:23;;;;;;;19.17;12.28;;;;;;;2.57;46.75;102104.09;1462008;88;21597;-80
2022/01/12 11:18:54;;;;;;;21.53;12.37;;;;;;;2.38;46.76;102096.89;1450040;87;22455;-80
2022/01/12 11:21:41;;;;;;;18.63;12.53;;;;;;;2.20;47.57;102100.16;1454986;88;21472;-82
2022/01/12 11:24:15;;;;;;;26.33;14.63;;;;;;;1.71;48.07;102102.64;1440009;88;21436;-82
2022/01/12 11:26:54;;;;;;;21.27;11.90;;;;;;;1.52;48.94;102098.91;1452331;87;21576;-79
2022/01/12 11:29:27;;;;;;;22.33;12.70;;;;;;;0.99;48.89;102104.02;1449998;87;21422;-82
2022/01/12 11:32:07;;;;;;;21.93;13.30;;;;;;;0.88;49.79;102105.63;1458707;88;21488;-82
2022/01/12 11:34:34;;;;;;;22.13;13.20;;;;;;;0.74;49.83;102106.47;1457100;87;21429;-82
2022/01/12 11:37:17;;;;;;;25.90;13.63;;;;;;;0.13;51.05;102115.50;1456849;88;21414;-82
2022/01/12 11:39:44;;;;;;;17.97;9.63;;;;;;;0.38;51.12;102107.91;1447168;88;21618;-81
2022/01/12 11:42:11;;;;;;;26.37;14.47;;;;;;;-0.05;51.39;102105.97;1433973;87;21460;-80
2022/01/12 11:44:39;;;;;;;23.37;12.80;;;;;;;0.51;51.52;102105.36;1450264;87;22591;-81
2022/01/12 11:47:12;;;;;;;19.10;11.40;;;;;;;0.51;50.30;102097.99;1464560;88;21553;-81
2022/01/12 11:49:47;;;;;;;23.57;12.93;;;;;;;0.51;50.30;102097.99;1451796;88;21287;-82
2022/01/12 11:52:24;;;;;;;23.93;13.50;;;;;;;0.91;51.09;102096.41;1401054;90;21356;-82
2022/01/12 11:54:55;;;;;;;26.97;16.20;;;;;;;1.51;49.37;102103.27;1401443;91;21443;-82
2022/01/12 11:57:35;;;;;;;27.93;14.47;;;;;;;1.96;49.59;102109.68;1428375;88;22314;-82
2022/01/12 12:00:17;;;;;;;19.67;11.43;;;;;;;1.88;47.81;102111.69;1446087;88;21332;-81
2022/01/12 12:02:51;;;;;;;20.17;12.23;;;;;;;1.74;47.24;102113.44;1406891;90;21505;-82
2022/01/12 12:05:29;;;;;;;22.03;12.43;;;;;;;1.49;47.81;102110.75;1433270;90;22204;-80
2022/01/12 12:08:03;;;;;;;22.50;13.93;;;;;;;0.94;48.84;102108.05;1396739;89;21405;-80
2022/01/12 12:10:35;;;;;;;19.23;11.03;;;;;;;1.20;48.84;102107.73;1409724;90;21265;-81
2022/01/12 12:13:04;;;;;;;21.07;11.90;;;;;;;0.99;49.22;102110.54;1411464;90;21415;-80
2022/01/12 12:15:32;;;;;;;26.70;13.47;;;;;;;0.92;48.63;102107.69;1412683;91;21369;-81
2022/01/12 12:18:04;;;;;;;36.07;19.37;;;;;;;1.19;49.61;102112.11;1412357;91;22780;-81
2022/01/12 12:20:31;;;;;;;19.57;11.87;;;;;;;1.29;49.43;102117.42;1412258;91;23306;-80
2022/01/12 12:22:59;;;;;;;18.97;11.57;;;;;;;0.98;49.15;102112.72;1393218;90;22244;-79
2022/01/12 12:25:31;;;;;;;23.80;13.20;;;;;;;0.99;49.36;102114.45;1370000;89;21428;-80
2022/01/12 12:28:02;;;;;;;23.77;13.53;;;;;;;0.90;49.41;102107.30;1418713;90;21600;-80
2022/01/12 12:30:34;;;;;;;;;;;;;;;0.95;49.84;102110.20;1407639;90;21417;-82
2022/01/12 12:33:12;;;;;;;18.40;11.33;;;;;;;1.17;49.50;102109.98;1410736;89;20391;-81
2022/01/12 12:35:42;;;;;;;19.80;11.30;;;;;;;1.23;48.98;102118.92;1374540;91;21450;-80
2022/01/12 12:38:12;;;;;;;21.17;11.80;;;;;;;1.08;48.93;102116.33;1361512;91;21476;-80
2022/01/12 12:40:43;;;;;;;22.77;13.78;;;;;;;0.94;48.76;102120.23;1362407;91;22249;-80
2022/01/12 12:43:25;;;;;;;22.82;13.25;;;;;;;0.82;49.42;102114.48;1360585;91;21358;-80
2022/01/12 12:46:07;;;;;;;26.00;14.33;;;;;;;1.19;48.88;102111.25;1416505;91;21577;-81
2022/01/12 12:48:35;;;;;;;20.77;12.27;;;;;;;1.15;49.09;102118.75;1424190;91;22376;-80
2022/01/12 12:51:14;;;;;;;15.05;8.93;;;;;;;1.13;48.69;102117.05;1423706;90;23630;-80
2022/01/12 12:53:44;;;;;;;17.43;9.03;;;;;;;1.18;48.19;102115.63;1429867;90;22550;-81
2022/01/12 12:56:41;;;;;;;18.92;11.48;;;;;;;1.23;47.71;102113.70;1421861;90;21459;-80
2022/01/12 12:59:05;;;;;;;19.67;10.80;;;;;;;1.34;48.38;102121.21;1401435;91;21604;-80